sensor_id;sensor_type;location;lat;lon;timestamp;pressure;altitude;pressure_sealevel;temperature;humidity
17855;BME280;9053;53.358;6.382;2022-07-29T00:01:55;101977.09;;;15.86;91.82
17855;BME280;9053;53.358;6.382;2022-07-29T00:04:25;101985.16;;;15.89;92.05
17855;BME280;9053;53.358;6.382;2022-07-29T00:06:55;101978.84;;;15.86;92.16
17855;BME280;9053;53.358;6.382;2022-07-29T00:09:25;101985.22;;;15.92;92.20
17855;BME280;9053;53.358;6.382;2022-07-29T00:12:00;101980.72;;;15.90;92.58
17855;BME280;9053;53.358;6.382;2022-07-29T00:14:30;101979.09;;;15.93;92.71
17855;BME280;9053;53.358;6.382;2022-07-29T00:17:00;101976.59;;;15.99;92.63
17855;BME280;9053;53.358;6.382;2022-07-29T00:19:30;101972.78;;;15.90;92.89
17855;BME280;9053;53.358;6.382;2022-07-29T00:22:01;101979.91;;;15.92;93.22
17855;BME280;9053;53.358;6.382;2022-07-29T00:24:31;101971.06;;;15.92;93.54
17855;BME280;9053;53.358;6.382;2022-07-29T00:27:03;101966.56;;;15.89;93.82
17855;BME280;9053;53.358;6.382;2022-07-29T00:29:33;101970.41;;;15.99;93.64
17855;BME280;9053;53.358;6.382;2022-07-29T00:32:03;101967.06;;;16.06;93.39
17855;BME280;9053;53.358;6.382;2022-07-29T00:34:32;101965.16;;;16.00;94.03
17855;BME280;9053;53.358;6.382;2022-07-29T00:37:14;101955.50;;;16.04;93.96
17855;BME280;9053;53.358;6.382;2022-07-29T00:39:44;101951.88;;;16.00;94.36
17855;BME280;9053;53.358;6.382;2022-07-29T00:42:17;101953.59;;;15.98;94.74
17855;BME280;9053;53.358;6.382;2022-07-29T00:44:47;101949.41;;;16.07;94.50
17855;BME280;9053;53.358;6.382;2022-07-29T00:47:16;101955.56;;;16.06;94.81
17855;BME280;9053;53.358;6.382;2022-07-29T00:49:46;101945.94;;;16.09;94.65
17855;BME280;9053;53.358;6.382;2022-07-29T00:52:16;101949.66;;;16.16;94.44
17855;BME280;9053;53.358;6.382;2022-07-29T00:54:46;101944.53;;;16.22;94.29
17855;BME280;9053;53.358;6.382;2022-07-29T00:57:18;101949.06;;;16.26;94.38
17855;BME280;9053;53.358;6.382;2022-07-29T00:59:49;101936.63;;;16.23;94.26
17855;BME280;9053;53.358;6.382;2022-07-29T01:02:19;101942.13;;;16.31;94.06
17855;BME280;9053;53.358;6.382;2022-07-29T01:04:49;101937.78;;;16.33;94.05
17855;BME280;9053;53.358;6.382;2022-07-29T01:07:18;101932.34;;;16.30;94.26
17855;BME280;9053;53.358;6.382;2022-07-29T01:09:48;101932.41;;;16.32;94.32
17855;BME280;9053;53.358;6.382;2022-07-29T01:12:25;101935.72;;;16.23;94.77
17855;BME280;9053;53.358;6.382;2022-07-29T01:14:55;101929.59;;;16.26;94.89
17855;BME280;9053;53.358;6.382;2022-07-29T01:17:27;101934.94;;;16.27;94.71
17855;BME280;9053;53.358;6.382;2022-07-29T01:20:02;101926.22;;;16.31;94.79
17855;BME280;9053;53.358;6.382;2022-07-29T01:25:46;101932.47;;;16.33;94.83
17855;BME280;9053;53.358;6.382;2022-07-29T01:28:47;101923.75;;;16.39;94.25
17855;BME280;9053;53.358;6.382;2022-07-29T01:31:23;101921.16;;;16.40;94.32
17855;BME280;9053;53.358;6.382;2022-07-29T01:33:58;101920.91;;;16.31;94.83
17855;BME280;9053;53.358;6.382;2022-07-29T01:36:35;101917.38;;;16.32;94.73
17855;BME280;9053;53.358;6.382;2022-07-29T01:39:08;101918.38;;;16.36;94.69
17855;BME280;9053;53.358;6.382;2022-07-29T01:41:47;101913.16;;;16.39;94.50
17855;BME280;9053;53.358;6.382;2022-07-29T01:44:26;101914.97;;;16.41;94.24
17855;BME280;9053;53.358;6.382;2022-07-29T01:46:58;101909.94;;;16.52;93.87
17855;BME280;9053;53.358;6.382;2022-07-29T01:49:33;101908.97;;;16.49;93.77
17855;BME280;9053;53.358;6.382;2022-07-29T01:52:07;101907.16;;;16.48;94.23
17855;BME280;9053;53.358;6.382;2022-07-29T01:54:48;101903.50;;;16.42;94.40
17855;BME280;9053;53.358;6.382;2022-07-29T01:57:26;101891.13;;;16.43;94.09
17855;BME280;9053;53.358;6.382;2022-07-29T02:00:00;101898.09;;;16.39;94.11
17855;BME280;9053;53.358;6.382;2022-07-29T02:02:32;101890.69;;;16.26;94.83
17855;BME280;9053;53.358;6.382;2022-07-29T02:05:04;101894.28;;;16.28;94.68
17855;BME280;9053;53.358;6.382;2022-07-29T02:07:36;101875.91;;;16.36;94.30
17855;BME280;9053;53.358;6.382;2022-07-29T02:10:08;101883.00;;;16.37;94.09
17855;BME280;9053;53.358;6.382;2022-07-29T02:12:39;101875.09;;;16.40;93.68
17855;BME280;9053;53.358;6.382;2022-07-29T02:15:19;101874.13;;;16.36;93.88
17855;BME280;9053;53.358;6.382;2022-07-29T02:17:53;101867.00;;;16.35;93.72
17855;BME280;9053;53.358;6.382;2022-07-29T02:20:25;101871.41;;;16.33;93.60
17855;BME280;9053;53.358;6.382;2022-07-29T02:22:57;101863.31;;;16.29;93.72
17855;BME280;9053;53.358;6.382;2022-07-29T02:25:28;101858.91;;;16.29;93.67
17855;BME280;9053;53.358;6.382;2022-07-29T02:28:05;101865.09;;;16.30;93.52
17855;BME280;9053;53.358;6.382;2022-07-29T02:30:40;101859.78;;;16.28;93.42
17855;BME280;9053;53.358;6.382;2022-07-29T02:33:13;101855.22;;;16.24;93.79
17855;BME280;9053;53.358;6.382;2022-07-29T02:35:45;101851.69;;;16.25;93.62
17855;BME280;9053;53.358;6.382;2022-07-29T02:38:16;101848.34;;;16.32;93.26
17855;BME280;9053;53.358;6.382;2022-07-29T02:41:00;101843.88;;;16.30;93.56
17855;BME280;9053;53.358;6.382;2022-07-29T02:43:31;101848.16;;;16.25;93.81
17855;BME280;9053;53.358;6.382;2022-07-29T02:46:08;101851.59;;;16.20;94.25
17855;BME280;9053;53.358;6.382;2022-07-29T02:48:59;101855.31;;;16.27;94.30
17855;BME280;9053;53.358;6.382;2022-07-29T02:51:40;101857.81;;;16.22;94.45
17855;BME280;9053;53.358;6.382;2022-07-29T02:54:17;101850.06;;;16.30;94.20
17855;BME280;9053;53.358;6.382;2022-07-29T02:56:49;101850.06;;;16.30;93.81
17855;BME280;9053;53.358;6.382;2022-07-29T02:59:25;101851.00;;;16.31;93.86
17855;BME280;9053;53.358;6.382;2022-07-29T03:01:59;101849.22;;;16.31;93.72
17855;BME280;9053;53.358;6.382;2022-07-29T03:04:30;101850.03;;;16.29;93.90
17855;BME280;9053;53.358;6.382;2022-07-29T03:07:02;101847.50;;;16.33;93.88
17855;BME280;9053;53.358;6.382;2022-07-29T03:09:33;101844.88;;;16.33;93.98
17855;BME280;9053;53.358;6.382;2022-07-29T03:12:04;101840.44;;;16.34;93.91
17855;BME280;9053;53.358;6.382;2022-07-29T03:14:35;101836.78;;;16.30;94.30
17855;BME280;9053;53.358;6.382;2022-07-29T03:17:09;101832.16;;;16.21;94.76
17855;BME280;9053;53.358;6.382;2022-07-29T03:19:39;101833.03;;;16.22;94.52
17855;BME280;9053;53.358;6.382;2022-07-29T03:22:10;101832.91;;;16.17;94.62
17855;BME280;9053;53.358;6.382;2022-07-29T03:24:40;101829.38;;;16.17;94.60
17855;BME280;9053;53.358;6.382;2022-07-29T03:27:12;101836.50;;;16.18;94.62
17855;BME280;9053;53.358;6.382;2022-07-29T03:29:42;101833.59;;;16.09;94.86
17855;BME280;9053;53.358;6.382;2022-07-29T03:32:19;101823.84;;;16.09;94.53
17855;BME280;9053;53.358;6.382;2022-07-29T03:34:51;101832.50;;;16.02;94.65
17855;BME280;9053;53.358;6.382;2022-07-29T03:37:20;101825.50;;;16.04;94.28
17855;BME280;9053;53.358;6.382;2022-07-29T03:39:51;101821.75;;;15.96;94.42
17855;BME280;9053;53.358;6.382;2022-07-29T03:42:24;101822.56;;;15.95;94.64
17855;BME280;9053;53.358;6.382;2022-07-29T03:45:03;101820.59;;;15.86;94.89
17855;BME280;9053;53.358;6.382;2022-07-29T03:47:38;101823.41;;;15.92;94.52
17855;BME280;9053;53.358;6.382;2022-07-29T03:50:17;101820.78;;;15.94;94.70
17855;BME280;9053;53.358;6.382;2022-07-29T03:52:48;101815.53;;;15.95;94.60
17855;BME280;9053;53.358;6.382;2022-07-29T03:55:19;101814.34;;;15.84;94.90
17855;BME280;9053;53.358;6.382;2022-07-29T03:57:49;101802.88;;;15.85;94.99
17855;BME280;9053;53.358;6.382;2022-07-29T04:00:20;101810.13;;;15.92;94.67
17855;BME280;9053;53.358;6.382;2022-07-29T04:02:52;101801.53;;;16.01;94.31
17855;BME280;9053;53.358;6.382;2022-07-29T04:05:22;101800.66;;;16.00;94.06
17855;BME280;9053;53.358;6.382;2022-07-29T04:07:52;101806.88;;;16.02;94.14
17855;BME280;9053;53.358;6.382;2022-07-29T04:10:23;101807.00;;;16.07;93.75
17855;BME280;9053;53.358;6.382;2022-07-29T04:12:58;101803.56;;;16.11;93.41
17855;BME280;9053;53.358;6.382;2022-07-29T04:15:27;101792.84;;;16.07;93.73
17855;BME280;9053;53.358;6.382;2022-07-29T04:18:00;101805.00;;;15.98;93.77
17855;BME280;9053;53.358;6.382;2022-07-29T04:20:30;101801.41;;;15.96;94.15
17855;BME280;9053;53.358;6.382;2022-07-29T04:22:59;101809.91;;;15.83;94.74
17855;BME280;9053;53.358;6.382;2022-07-29T04:25:29;101805.63;;;15.88;94.48
17855;BME280;9053;53.358;6.382;2022-07-29T04:27:59;101809.44;;;15.99;94.46
17855;BME280;9053;53.358;6.382;2022-07-29T04:30:32;101808.63;;;16.02;94.68
17855;BME280;9053;53.358;6.382;2022-07-29T04:33:06;101805.97;;;16.02;95.01
17855;BME280;9053;53.358;6.382;2022-07-29T04:35:37;101810.31;;;15.98;95.33
17855;BME280;9053;53.358;6.382;2022-07-29T04:38:17;101805.97;;;16.00;95.36
17855;BME280;9053;53.358;6.382;2022-07-29T04:40:47;101805.22;;;16.06;95.23
17855;BME280;9053;53.358;6.382;2022-07-29T04:43:18;101807.19;;;16.13;94.93
17855;BME280;9053;53.358;6.382;2022-07-29T04:45:48;101803.72;;;16.17;94.80
17855;BME280;9053;53.358;6.382;2022-07-29T04:48:21;101804.88;;;16.27;94.57
17855;BME280;9053;53.358;6.382;2022-07-29T04:50:54;101805.66;;;16.23;94.74
17855;BME280;9053;53.358;6.382;2022-07-29T04:53:24;101794.94;;;16.20;95.38
17855;BME280;9053;53.358;6.382;2022-07-29T04:55:54;101800.19;;;16.17;95.69
17855;BME280;9053;53.358;6.382;2022-07-29T04:58:24;101802.13;;;16.24;95.59
17855;BME280;9053;53.358;6.382;2022-07-29T05:00:54;101799.53;;;16.26;96.14
17855;BME280;9053;53.358;6.382;2022-07-29T05:03:27;101800.34;;;16.23;96.66
17855;BME280;9053;53.358;6.382;2022-07-29T05:05:57;101799.69;;;16.32;96.29
17855;BME280;9053;53.358;6.382;2022-07-29T05:08:26;101791.88;;;16.38;96.17
17855;BME280;9053;53.358;6.382;2022-07-29T05:10:56;101799.94;;;16.41;96.08
17855;BME280;9053;53.358;6.382;2022-07-29T05:13:38;101793.63;;;16.37;96.50
17855;BME280;9053;53.358;6.382;2022-07-29T05:16:12;101786.66;;;16.42;96.84
17855;BME280;9053;53.358;6.382;2022-07-29T05:18:45;101794.72;;;16.46;96.59
17855;BME280;9053;53.358;6.382;2022-07-29T05:21:15;101793.97;;;16.51;96.42
17855;BME280;9053;53.358;6.382;2022-07-29T05:23:44;101802.72;;;16.47;95.93
17855;BME280;9053;53.358;6.382;2022-07-29T05:26:14;101799.41;;;16.56;95.95
17855;BME280;9053;53.358;6.382;2022-07-29T05:28:44;101790.63;;;16.60;95.29
17855;BME280;9053;53.358;6.382;2022-07-29T05:31:14;101795.41;;;16.73;95.10
17855;BME280;9053;53.358;6.382;2022-07-29T05:33:46;101793.63;;;16.74;94.89
17855;BME280;9053;53.358;6.382;2022-07-29T05:36:16;101791.94;;;16.77;94.57
17855;BME280;9053;53.358;6.382;2022-07-29T05:38:46;101793.63;;;16.74;94.35
17855;BME280;9053;53.358;6.382;2022-07-29T05:41:17;101790.09;;;16.75;94.66
17855;BME280;9053;53.358;6.382;2022-07-29T05:43:47;101796.47;;;16.80;94.13
17855;BME280;9053;53.358;6.382;2022-07-29T05:46:17;101791.03;;;16.77;94.24
17855;BME280;9053;53.358;6.382;2022-07-29T05:48:49;101791.25;;;16.84;93.53
17855;BME280;9053;53.358;6.382;2022-07-29T05:51:19;101791.38;;;16.91;93.27
17855;BME280;9053;53.358;6.382;2022-07-29T05:53:49;101791.53;;;16.97;92.94
17855;BME280;9053;53.358;6.382;2022-07-29T05:56:19;101797.03;;;17.04;92.13
17855;BME280;9053;53.358;6.382;2022-07-29T05:58:49;101802.50;;;17.12;91.44
17855;BME280;9053;53.358;6.382;2022-07-29T06:01:19;101794.59;;;17.14;91.37
17855;BME280;9053;53.358;6.382;2022-07-29T06:03:52;101804.44;;;17.19;90.47
17855;BME280;9053;53.358;6.382;2022-07-29T06:06:22;101797.44;;;17.23;90.24
17855;BME280;9053;53.358;6.382;2022-07-29T06:08:52;101801.25;;;17.36;90.46
17855;BME280;9053;53.358;6.382;2022-07-29T06:11:22;101799.53;;;17.38;90.07
17855;BME280;9053;53.358;6.382;2022-07-29T06:13:52;101796.91;;;17.41;89.10
17855;BME280;9053;53.358;6.382;2022-07-29T06:16:22;101795.25;;;17.44;88.61
17855;BME280;9053;53.358;6.382;2022-07-29T06:18:58;101796.31;;;17.54;88.59
17855;BME280;9053;53.358;6.382;2022-07-29T06:21:28;101809.78;;;17.62;87.91
17855;BME280;9053;53.358;6.382;2022-07-29T06:23:58;101804.41;;;17.60;87.67
17855;BME280;9053;53.358;6.382;2022-07-29T06:26:27;101801.88;;;17.66;87.60
17855;BME280;9053;53.358;6.382;2022-07-29T06:29:03;101797.56;;;17.73;87.89
17855;BME280;9053;53.358;6.382;2022-07-29T06:31:33;101810.22;;;17.83;88.21
17855;BME280;9053;53.358;6.382;2022-07-29T06:34:06;101800.59;;;17.90;87.16
17855;BME280;9053;53.358;6.382;2022-07-29T06:36:37;101801.59;;;17.95;87.02
17855;BME280;9053;53.358;6.382;2022-07-29T06:39:07;101803.50;;;18.04;87.11
17855;BME280;9053;53.358;6.382;2022-07-29T06:41:37;101806.25;;;18.08;86.32
17855;BME280;9053;53.358;6.382;2022-07-29T06:44:07;101817.03;;;18.14;86.39
17855;BME280;9053;53.358;6.382;2022-07-29T06:46:37;101794.06;;;18.20;86.06
17855;BME280;9053;53.358;6.382;2022-07-29T06:49:09;101799.66;;;18.35;86.65
17855;BME280;9053;53.358;6.382;2022-07-29T06:51:40;101805.09;;;18.43;85.26
17855;BME280;9053;53.358;6.382;2022-07-29T06:54:10;101798.09;;;18.49;84.78
17855;BME280;9053;53.358;6.382;2022-07-29T06:56:40;101800.06;;;18.61;84.84
17855;BME280;9053;53.358;6.382;2022-07-29T06:59:11;101801.88;;;18.64;84.70
17855;BME280;9053;53.358;6.382;2022-07-29T07:01:42;101803.56;;;18.58;84.91
17855;BME280;9053;53.358;6.382;2022-07-29T07:04:15;101808.13;;;18.66;85.25
17855;BME280;9053;53.358;6.382;2022-07-29T07:06:46;101814.63;;;18.80;84.90
17855;BME280;9053;53.358;6.382;2022-07-29T07:09:15;101805.88;;;18.90;85.06
17855;BME280;9053;53.358;6.382;2022-07-29T07:11:45;101813.03;;;18.94;84.16
17855;BME280;9053;53.358;6.382;2022-07-29T07:14:15;101820.28;;;19.05;83.59
17855;BME280;9053;53.358;6.382;2022-07-29T07:16:46;101820.31;;;19.06;83.12
17855;BME280;9053;53.358;6.382;2022-07-29T07:19:20;101825.81;;;19.17;83.25
17855;BME280;9053;53.358;6.382;2022-07-29T07:21:51;101823.91;;;19.10;82.98
17855;BME280;9053;53.358;6.382;2022-07-29T07:24:21;101816.63;;;18.96;82.45
17855;BME280;9053;53.358;6.382;2022-07-29T07:26:51;101816.78;;;19.07;82.91
17855;BME280;9053;53.358;6.382;2022-07-29T07:29:21;101809.63;;;19.05;83.10
17855;BME280;9053;53.358;6.382;2022-07-29T07:31:51;101814.06;;;19.04;83.14
17855;BME280;9053;53.358;6.382;2022-07-29T07:34:29;101815.03;;;19.08;83.00
17855;BME280;9053;53.358;6.382;2022-07-29T07:36:59;101810.44;;;18.99;82.82
17855;BME280;9053;53.358;6.382;2022-07-29T07:39:29;101806.16;;;19.09;82.88
17855;BME280;9053;53.358;6.382;2022-07-29T07:41:58;101803.66;;;19.22;84.13
17855;BME280;9053;53.358;6.382;2022-07-29T07:44:28;101803.00;;;19.39;83.83
17855;BME280;9053;53.358;6.382;2022-07-29T07:47:08;101804.94;;;19.51;81.78
17855;BME280;9053;53.358;6.382;2022-07-29T07:49:40;101797.88;;;19.56;81.43
17855;BME280;9053;53.358;6.382;2022-07-29T07:52:10;101794.44;;;19.66;81.94
17855;BME280;9053;53.358;6.382;2022-07-29T07:54:40;101790.16;;;19.79;81.09
17855;BME280;9053;53.358;6.382;2022-07-29T07:57:11;101792.88;;;19.83;80.00
17855;BME280;9053;53.358;6.382;2022-07-29T07:59:41;101799.13;;;19.84;79.35
17855;BME280;9053;53.358;6.382;2022-07-29T08:02:11;101798.28;;;19.89;79.37
17855;BME280;9053;53.358;6.382;2022-07-29T08:04:44;101800.06;;;19.91;78.71
17855;BME280;9053;53.358;6.382;2022-07-29T08:07:14;101794.66;;;19.84;78.69
17855;BME280;9053;53.358;6.382;2022-07-29T08:09:44;101793.75;;;19.82;79.31
17855;BME280;9053;53.358;6.382;2022-07-29T08:12:13;101790.31;;;19.96;79.07
17855;BME280;9053;53.358;6.382;2022-07-29T08:14:43;101787.78;;;20.08;78.92
17855;BME280;9053;53.358;6.382;2022-07-29T08:17:14;101800.44;;;20.30;79.56
17855;BME280;9053;53.358;6.382;2022-07-29T08:19:46;101796.88;;;20.28;78.53
17855;BME280;9053;53.358;6.382;2022-07-29T08:22:16;101796.91;;;20.31;78.41
17855;BME280;9053;53.358;6.382;2022-07-29T08:24:46;101789.00;;;20.44;77.49
17855;BME280;9053;53.358;6.382;2022-07-29T08:27:22;101793.50;;;20.51;77.39
17855;BME280;9053;53.358;6.382;2022-07-29T08:30:10;101790.13;;;20.73;77.87
17855;BME280;9053;53.358;6.382;2022-07-29T08:32:40;101805.97;;;20.49;75.72
17855;BME280;9053;53.358;6.382;2022-07-29T08:35:23;101793.41;;;20.39;77.65
17855;BME280;9053;53.358;6.382;2022-07-29T08:37:58;101803.31;;;20.49;77.16
17855;BME280;9053;53.358;6.382;2022-07-29T08:40:30;101798.06;;;20.63;76.98
17855;BME280;9053;53.358;6.382;2022-07-29T08:43:04;101806.28;;;20.87;76.73
17855;BME280;9053;53.358;6.382;2022-07-29T08:45:41;101808.19;;;21.08;75.63
17855;BME280;9053;53.358;6.382;2022-07-29T08:48:14;101812.69;;;21.22;75.83
17855;BME280;9053;53.358;6.382;2022-07-29T08:50:48;101802.84;;;21.11;74.54
17855;BME280;9053;53.358;6.382;2022-07-29T08:53:19;101803.75;;;21.12;74.32
17855;BME280;9053;53.358;6.382;2022-07-29T08:55:51;101802.94;;;21.28;74.26
17855;BME280;9053;53.358;6.382;2022-07-29T08:58:22;101801.16;;;21.26;73.43
17855;BME280;9053;53.358;6.382;2022-07-29T09:00:54;101797.47;;;21.02;73.06
17855;BME280;9053;53.358;6.382;2022-07-29T09:03:29;101789.34;;;20.88;72.12
17855;BME280;9053;53.358;6.382;2022-07-29T09:06:03;101788.53;;;21.00;73.64
17855;BME280;9053;53.358;6.382;2022-07-29T09:08:33;101796.53;;;20.97;72.26
17855;BME280;9053;53.358;6.382;2022-07-29T09:11:03;101789.38;;;20.96;72.16
17855;BME280;9053;53.358;6.382;2022-07-29T09:13:34;101798.31;;;20.95;72.33
17855;BME280;9053;53.358;6.382;2022-07-29T09:16:05;101790.22;;;20.89;72.38
17855;BME280;9053;53.358;6.382;2022-07-29T09:18:37;101787.56;;;20.89;73.24
17855;BME280;9053;53.358;6.382;2022-07-29T09:21:12;101786.69;;;20.87;72.79
17855;BME280;9053;53.358;6.382;2022-07-29T09:24:03;101779.50;;;20.80;72.67
17855;BME280;9053;53.358;6.382;2022-07-29T09:26:36;101792.00;;;20.88;73.64
17855;BME280;9053;53.358;6.382;2022-07-29T09:29:10;101791.09;;;20.82;72.95
17855;BME280;9053;53.358;6.382;2022-07-29T09:31:42;101785.69;;;20.75;74.10
17855;BME280;9053;53.358;6.382;2022-07-29T09:34:14;101785.75;;;20.85;73.34
17855;BME280;9053;53.358;6.382;2022-07-29T09:36:48;101791.22;;;21.02;73.44
17855;BME280;9053;53.358;6.382;2022-07-29T09:39:28;101791.19;;;20.99;72.56
17855;BME280;9053;53.358;6.382;2022-07-29T09:42:00;101792.13;;;21.02;73.84
17855;BME280;9053;53.358;6.382;2022-07-29T09:44:43;101790.38;;;21.10;73.39
17855;BME280;9053;53.358;6.382;2022-07-29T09:47:15;101788.56;;;21.02;73.30
17855;BME280;9053;53.358;6.382;2022-07-29T09:49:53;101784.88;;;20.87;73.01
17855;BME280;9053;53.358;6.382;2022-07-29T09:52:28;101779.59;;;21.01;74.19
17855;BME280;9053;53.358;6.382;2022-07-29T09:55:05;101789.50;;;21.14;73.71
17855;BME280;9053;53.358;6.382;2022-07-29T09:57:39;101783.31;;;21.23;72.95
17855;BME280;9053;53.358;6.382;2022-07-29T10:00:11;101778.84;;;21.25;73.08
17855;BME280;9053;53.358;6.382;2022-07-29T10:02:42;101779.78;;;21.35;72.44
17855;BME280;9053;53.358;6.382;2022-07-29T10:05:18;101785.16;;;21.35;72.77
17855;BME280;9053;53.358;6.382;2022-07-29T10:07:52;101781.59;;;21.34;72.43
17855;BME280;9053;53.358;6.382;2022-07-29T10:10:24;101786.91;;;21.33;71.88
17855;BME280;9053;53.358;6.382;2022-07-29T10:12:55;101780.69;;;21.37;73.13
17855;BME280;9053;53.358;6.382;2022-07-29T10:15:35;101780.78;;;21.48;72.63
17855;BME280;9053;53.358;6.382;2022-07-29T10:18:08;101786.13;;;21.48;71.95
17855;BME280;9053;53.358;6.382;2022-07-29T10:20:38;101778.97;;;21.42;71.97
17855;BME280;9053;53.358;6.382;2022-07-29T10:23:11;101774.53;;;21.47;72.37
17855;BME280;9053;53.358;6.382;2022-07-29T10:25:41;101770.03;;;21.43;72.68
17855;BME280;9053;53.358;6.382;2022-07-29T10:28:12;101771.84;;;21.53;72.25
17855;BME280;9053;53.358;6.382;2022-07-29T10:30:43;101774.53;;;21.59;71.96
17855;BME280;9053;53.358;6.382;2022-07-29T10:33:25;101764.72;;;21.57;72.64
17855;BME280;9053;53.358;6.382;2022-07-29T10:36:19;101767.41;;;21.57;72.66
17855;BME280;9053;53.358;6.382;2022-07-29T10:39:00;101764.72;;;21.45;72.45
17855;BME280;9053;53.358;6.382;2022-07-29T10:41:43;101768.13;;;21.27;71.80
17855;BME280;9053;53.358;6.382;2022-07-29T10:44:19;101762.78;;;21.21;72.55
17855;BME280;9053;53.358;6.382;2022-07-29T10:46:51;101762.75;;;21.16;73.27
17855;BME280;9053;53.358;6.382;2022-07-29T10:49:22;101761.88;;;21.18;72.94
17855;BME280;9053;53.358;6.382;2022-07-29T10:52:01;101766.38;;;21.26;72.37
17855;BME280;9053;53.358;6.382;2022-07-29T10:54:48;101757.47;;;21.28;73.64
17855;BME280;9053;53.358;6.382;2022-07-29T10:57:22;101762.81;;;21.25;72.62
17855;BME280;9053;53.358;6.382;2022-07-29T11:00:31;101759.25;;;21.25;73.12
17855;BME280;9053;53.358;6.382;2022-07-29T11:03:01;101759.25;;;21.25;73.27
17855;BME280;9053;53.358;6.382;2022-07-29T11:05:52;101758.38;;;21.33;74.17
17855;BME280;9053;53.358;6.382;2022-07-29T11:08:26;101754.88;;;21.44;76.72
17855;BME280;9053;53.358;6.382;2022-07-29T11:14:00;101758.50;;;21.66;80.13
17855;BME280;9053;53.358;6.382;2022-07-29T11:17:03;101754.97;;;21.73;80.26
17855;BME280;9053;53.358;6.382;2022-07-29T11:19:34;101746.94;;;21.79;80.45
17855;BME280;9053;53.358;6.382;2022-07-29T11:22:32;101738.03;;;21.89;78.30
17855;BME280;9053;53.358;6.382;2022-07-29T11:25:18;101739.78;;;21.79;77.86
17855;BME280;9053;53.358;6.382;2022-07-29T11:28:16;101748.72;;;21.72;80.18
17855;BME280;9053;53.358;6.382;2022-07-29T11:31:11;101738.00;;;21.78;80.99
17855;BME280;9053;53.358;6.382;2022-07-29T11:33:41;101747.84;;;21.87;81.87
17855;BME280;9053;53.358;6.382;2022-07-29T11:36:22;101735.34;;;21.91;82.43
17855;BME280;9053;53.358;6.382;2022-07-29T11:39:33;101740.69;;;21.89;83.32
17855;BME280;9053;53.358;6.382;2022-07-29T11:45:09;101741.63;;;22.25;80.49
17855;BME280;9053;53.358;6.382;2022-07-29T11:48:03;101737.19;;;22.33;78.98
17855;BME280;9053;53.358;6.382;2022-07-29T11:50:54;101745.22;;;22.61;77.75
17855;BME280;9053;53.358;6.382;2022-07-29T11:53:24;101743.38;;;22.77;75.21
17855;BME280;9053;53.358;6.382;2022-07-29T11:55:59;101743.38;;;22.77;72.23
17855;BME280;9053;53.358;6.382;2022-07-29T11:58:30;101742.44;;;22.85;71.72
17855;BME280;9053;53.358;6.382;2022-07-29T12:01:03;101740.66;;;22.87;71.62
17855;BME280;9053;53.358;6.382;2022-07-29T12:03:35;101750.47;;;22.96;72.84
17855;BME280;9053;53.358;6.382;2022-07-29T12:06:11;101748.69;;;23.03;70.95
17855;BME280;9053;53.358;6.382;2022-07-29T12:08:44;101744.22;;;23.02;69.70
17855;BME280;9053;53.358;6.382;2022-07-29T12:11:18;101748.72;;;22.98;70.13
17855;BME280;9053;53.358;6.382;2022-07-29T12:13:49;101742.47;;;23.01;71.04
17855;BME280;9053;53.358;6.382;2022-07-29T12:16:19;101742.47;;;22.93;69.54
17855;BME280;9053;53.358;6.382;2022-07-29T12:19:02;101747.84;;;22.79;69.76
17855;BME280;9053;53.358;6.382;2022-07-29T12:21:44;101752.31;;;22.74;71.13
17855;BME280;9053;53.358;6.382;2022-07-29T12:24:22;101740.69;;;22.75;71.42
17855;BME280;9053;53.358;6.382;2022-07-29T12:26:54;101745.19;;;22.72;70.42
17855;BME280;9053;53.358;6.382;2022-07-29T12:29:25;101744.28;;;22.74;72.31
17855;BME280;9053;53.358;6.382;2022-07-29T12:32:00;101735.31;;;22.75;71.32
17855;BME280;9053;53.358;6.382;2022-07-29T12:34:42;101724.59;;;22.77;70.38
17855;BME280;9053;53.358;6.382;2022-07-29T12:37:12;101725.47;;;22.86;72.75
17855;BME280;9053;53.358;6.382;2022-07-29T12:39:42;101718.31;;;22.88;71.49
17855;BME280;9053;53.358;6.382;2022-07-29T12:42:13;101722.78;;;22.86;72.66
17855;BME280;9053;53.358;6.382;2022-07-29T12:44:46;101734.41;;;22.87;72.98
17855;BME280;9053;53.358;6.382;2022-07-29T12:47:17;101723.69;;;22.82;71.88
17855;BME280;9053;53.358;6.382;2022-07-29T12:49:51;101729.03;;;22.90;72.99
17855;BME280;9053;53.358;6.382;2022-07-29T12:52:36;101721.00;;;22.93;72.89
17855;BME280;9053;53.358;6.382;2022-07-29T12:55:06;101719.16;;;23.09;71.61
17855;BME280;9053;53.358;6.382;2022-07-29T12:57:45;101720.91;;;23.22;71.69
17855;BME280;9053;53.358;6.382;2022-07-29T13:00:22;101715.50;;;23.27;68.99
17855;BME280;9053;53.358;6.382;2022-07-29T13:02:55;101728.00;;;23.34;69.63
17855;BME280;9053;53.358;6.382;2022-07-29T13:05:42;101716.34;;;23.41;70.64
17855;BME280;9053;53.358;6.382;2022-07-29T13:08:16;101709.09;;;23.54;69.36
17855;BME280;9053;53.358;6.382;2022-07-29T13:10:48;101711.72;;;23.63;68.61
17855;BME280;9053;53.358;6.382;2022-07-29T13:13:18;101709.88;;;23.68;68.00
17855;BME280;9053;53.358;6.382;2022-07-29T13:16:05;101708.03;;;23.83;68.00
17855;BME280;9053;53.358;6.382;2022-07-29T13:18:35;101709.78;;;23.90;68.09
17855;BME280;9053;53.358;6.382;2022-07-29T13:21:17;101709.66;;;24.04;67.08
17855;BME280;9053;53.358;6.382;2022-07-29T13:23:46;101714.13;;;24.08;67.47
17855;BME280;9053;53.358;6.382;2022-07-29T13:26:16;101698.00;;;24.09;65.56
17855;BME280;9053;53.358;6.382;2022-07-29T13:28:46;101700.50;;;24.26;66.10
17855;BME280;9053;53.358;6.382;2022-07-29T13:31:16;101699.59;;;24.32;66.96
17855;BME280;9053;53.358;6.382;2022-07-29T13:33:46;101698.78;;;24.21;63.87
17855;BME280;9053;53.358;6.382;2022-07-29T13:36:21;101695.94;;;24.36;66.89
17855;BME280;9053;53.358;6.382;2022-07-29T13:38:50;101709.22;;;24.54;64.56
17855;BME280;9053;53.358;6.382;2022-07-29T13:41:20;101695.69;;;24.65;64.95
17855;BME280;9053;53.358;6.382;2022-07-29T13:43:51;101700.84;;;24.83;64.58